tititudorancea.com
Station Historical Data
Daily Summary for September 26, 2018 Units:  Metric    English   Both
« Previous Day
Next Day »
Daily Weekly Monthly Yearly Custom
  High: Low: Average:
Temperature: -17.8 °C 3.2 °C 10.1 °C
Dew Point: -17.8 °C -4.4 °C 0.9 °C
Humidity: Humidity % 21 % 59 %
Wind Speed: 0 km/h 0 km/h 8.2 km/h
Wind Gust: 0 km/h - -
Wind:- - SW
Pressure: 0 hPa 1016.5 hPa -
Precipitation: 0 mm    
Historical Graphs
 
 
Ararat weather Find more about Weather in Ararat, AU


 



 


Tabular Data for September 26, 2018
Time Temperature Dew Point Pressure Wind Wind Speed Wind Gust Humidity Rainfall Rate (Hourly)
-17.8 °C -17.8 °C 0 hPa Calm     Humidity % 0 mm
00:04 3.3 °C 1.6 °C 1025.3 hPa South 8 km/h 4.7 km/h 88 % 0 mm
00:09 3.3 °C 1.6 °C 1024.9 hPa South 9.7 km/h 8.4 km/h 89 % 0 mm
00:14 3.3 °C 1.7 °C 1024.9 hPa North 7.4 km/h 6.8 km/h 89 % 0 mm
00:19 3.3 °C 1.7 °C 1024.9 hPa North 9.3 km/h 6.1 km/h 89 % 0 mm
00:24 3.4 °C 1.7 °C 1024.9 hPa South 14.8 km/h 11.1 km/h 89 % 0 mm
00:29 3.4 °C 1.8 °C 1024.9 hPa North 11.1 km/h 6.4 km/h 89 % 0 mm
00:34 3.6 °C 1.9 °C 1024.9 hPa South 14.8 km/h 8.4 km/h 89 % 0 mm
00:39 3.8 °C 2.2 °C 1024.9 hPa South 14.8 km/h 11.6 km/h 89 % 0 mm
00:44 4 °C 2.2 °C 1024.9 hPa South 14.8 km/h 9.8 km/h 88 % 0 mm
00:49 4.2 °C 2.3 °C 1024.9 hPa North 16.7 km/h 10.6 km/h 88 % 0 mm
00:54 4.3 °C 2.3 °C 1024.9 hPa South 16.7 km/h 8 km/h 87 % 0 mm
00:59 4.3 °C 2.2 °C 1024.9 hPa South 18.5 km/h 10.6 km/h 86 % 0 mm
01:04 4.3 °C 2.2 °C 1024.9 hPa South 22.2 km/h 12.2 km/h 86 % 0 mm
01:09 4.2 °C 2.1 °C 1024.9 hPa South 11.1 km/h 8.4 km/h 86 % 0 mm
01:14 4.2 °C 2.1 °C 1024.9 hPa South 9.7 km/h 7.6 km/h 86 % 0 mm
01:19 4.1 °C 2 °C 1024.9 hPa South 11.1 km/h 6.8 km/h 86 % 0 mm
01:24 4 °C 1.9 °C 1024.6 hPa South 14.8 km/h 7.6 km/h 86 % 0 mm
01:29 4 °C 1.9 °C 1024.6 hPa North 13 km/h 8.4 km/h 86 % 0 mm
01:34 4 °C 2.1 °C 1024.6 hPa South 16.7 km/h 11.4 km/h 87 % 0 mm
01:39 4.1 °C 1.9 °C 1024.6 hPa South 14.8 km/h 6 km/h 86 % 0 mm
01:44 4 °C 1.9 °C 1024.6 hPa South 11.1 km/h 6.9 km/h 86 % 0 mm
01:49 3.9 °C 1.8 °C 1024.6 hPa South 14.8 km/h 7.9 km/h 86 % 0 mm
01:54 3.8 °C 1.7 °C 1024.3 hPa North 14.8 km/h 8.7 km/h 86 % 0 mm
01:59 3.7 °C 1.6 °C 1024.3 hPa South 14.8 km/h 10.3 km/h 86 % 0 mm
02:04 3.7 °C 1.8 °C 1024.3 hPa North 14.8 km/h 10.3 km/h 87 % 0 mm
02:09 3.7 °C 1.7 °C 1024.3 hPa North 13 km/h 9.8 km/h 87 % 0 mm
02:14 3.7 °C 1.7 °C 1023.9 hPa South 16.7 km/h 10.1 km/h 87 % 0 mm
02:19 3.7 °C 1.7 °C 1023.9 hPa North 14.5 km/h 9.2 km/h 87 % 0 mm
02:24 3.6 °C 1.7 °C 1023.9 hPa South 13 km/h 9.7 km/h 87 % 0 mm
02:29 3.5 °C 1.6 °C 1023.9 hPa North 14.8 km/h 6.9 km/h 87 % 0 mm
02:34 3.4 °C 1.5 °C 1023.9 hPa South 13 km/h 6.3 km/h 87 % 0 mm
02:39 3.3 °C 1.4 °C 1023.9 hPa South 9.3 km/h 5 km/h 87 % 0 mm
02:44 3.3 °C 1.5 °C 1023.9 hPa North 6.4 km/h 4.2 km/h 88 % 0 mm
02:49 3.2 °C 1.4 °C 1023.9 hPa North 9.3 km/h 7.2 km/h 88 % 0 mm
02:54 3.2 °C 1.4 °C 1023.9 hPa South 16.1 km/h 10.3 km/h 88 % 0 mm
02:59 3.3 °C 1.7 °C 1023.9 hPa South 14.8 km/h 10.5 km/h 89 % 0 mm
03:04 3.4 °C 1.8 °C 1023.6 hPa South 16.7 km/h 8.2 km/h 89 % 0 mm
03:09 3.5 °C 1.7 °C 1023.6 hPa North 14.5 km/h 12.7 km/h 88 % 0 mm
03:14 3.4 °C 1.7 °C 1023.6 hPa South 9.7 km/h 10.9 km/h 88 % 0 mm
03:19 3.4 °C 1.7 °C 1023.2 hPa North 14.8 km/h 10.8 km/h 89 % 0 mm
03:24 3.4 °C 1.6 °C 1023.2 hPa North 9.3 km/h 6.9 km/h 88 % 0 mm
03:29 3.3 °C 1.5 °C 1023.2 hPa North 16.7 km/h 10 km/h 88 % 0 mm
03:34 3.3 °C 1.6 °C 1022.9 hPa South 9.3 km/h 8.5 km/h 89 % 0 mm
03:39 3.3 °C 1.6 °C 1022.9 hPa South 11.1 km/h 6.6 km/h 89 % 0 mm
03:44 3.3 °C 1.6 °C 1022.9 hPa South 13 km/h 8.9 km/h 89 % 0 mm
03:49 3.3 °C 1.7 °C 1022.9 hPa South 6.4 km/h 4 km/h 89 % 0 mm
03:54 3.3 °C 1.7 °C 1022.9 hPa North 7.4 km/h 6.4 km/h 89 % 0 mm
03:59 3.3 °C 1.7 °C 1022.9 hPa North 11.1 km/h 5.6 km/h 89 % 0 mm
04:04 3.3 °C 1.6 °C 1022.6 hPa South 9.7 km/h 7.1 km/h 89 % 0 mm
04:09 3.2 °C 1.6 °C 1022.6 hPa North 13 km/h 9.2 km/h 89 % 0 mm
04:14 3.2 °C 1.6 °C 1022.6 hPa South 13 km/h 9.2 km/h 89 % 0 mm
04:19 3.2 °C 1.7 °C 1022.6 hPa North 14.8 km/h 11.3 km/h 90 % 0 mm
04:24 3.2 °C 1.7 °C 1022.6 hPa South 14.8 km/h 11.1 km/h 90 % 0 mm
04:29 3.2 °C 1.7 °C 1022.6 hPa South 13 km/h 9 km/h 90 % 0 mm
04:34 3.3 °C 1.8 °C 1022.6 hPa South 13 km/h 10.8 km/h 90 % 0 mm
04:39 3.4 °C 1.7 °C 1022.6 hPa South 13 km/h 9.7 km/h 89 % 0 mm
04:44 3.4 °C 1.8 °C 1022.6 hPa North 11.1 km/h 7.7 km/h 89 % 0 mm
04:49 3.5 °C 1.8 °C 1022.2 hPa South 13 km/h 11.7 km/h 89 % 0 mm
04:54 3.6 °C 1.9 °C 1022.2 hPa South 16.7 km/h 9.3 km/h 89 % 0 mm
04:59 3.7 °C 1.9 °C 1022.2 hPa South 16.7 km/h 10.3 km/h 88 % 0 mm
05:04 3.8 °C 2 °C 1022.2 hPa South 18.5 km/h 9.7 km/h 88 % 0 mm
05:09 3.8 °C 2 °C 1022.6 hPa South 14.8 km/h 10 km/h 88 % 0 mm
05:14 3.8 °C 2 °C 1022.6 hPa South 13 km/h 8.5 km/h 88 % 0 mm
05:19 3.8 °C 1.9 °C 1022.6 hPa South 13 km/h 8.2 km/h 87 % 0 mm
05:24 3.7 °C 1.8 °C 1022.6 hPa South 13 km/h 7.9 km/h 87 % 0 mm
05:29 3.7 °C 1.8 °C 1022.6 hPa South 11.1 km/h 8.5 km/h 87 % 0 mm
05:34 3.7 °C 1.7 °C 1022.6 hPa South 14.8 km/h 10.8 km/h 87 % 0 mm
05:39 3.6 °C 1.7 °C 1022.6 hPa South 18.5 km/h 10.8 km/h 87 % 0 mm
05:44 3.6 °C 1.7 °C 1022.6 hPa South 14.8 km/h 11.7 km/h 87 % 0 mm
05:49 3.6 °C 1.8 °C 1022.6 hPa SSW 16.7 km/h 14 km/h 88 % 0 mm
05:54 3.6 °C 1.6 °C 1022.6 hPa South 18.5 km/h 13.8 km/h 87 % 0 mm
05:59 3.5 °C 1.6 °C 1022.6 hPa South 16.7 km/h 8.5 km/h 87 % 0 mm
06:04 3.4 °C 1.5 °C 1022.6 hPa South 16.7 km/h 9.7 km/h 87 % 0 mm
06:09 3.4 °C 1.6 °C 1022.6 hPa SSW 18.5 km/h 13 km/h 88 % 0 mm
06:14 3.4 °C 1.6 °C 1022.6 hPa South 13 km/h 8.2 km/h 88 % 0 mm
06:19 3.3 °C 1.6 °C 1022.6 hPa North 14.8 km/h 12.1 km/h 88 % 0 mm
06:24 3.4 °C 1.6 °C 1022.6 hPa South 14.8 km/h 7.7 km/h 88 % 0 mm
06:29 3.4 °C 1.7 °C 1022.6 hPa South 13 km/h 9.3 km/h 88 % 0 mm
06:34 3.6 °C 1.8 °C 1022.6 hPa North 14.8 km/h 8.2 km/h 88 % 0 mm
06:39 3.7 °C 1.9 °C 1022.6 hPa South 9.7 km/h 5.8 km/h 88 % 0 mm
06:44 3.8 °C 2 °C 1022.6 hPa South 9.7 km/h 10.9 km/h 88 % 0 mm
06:49 3.9 °C 2.1 °C 1022.6 hPa South 11.1 km/h 5.1 km/h 88 % 0 mm
06:54 4 °C 2.2 °C 1022.6 hPa SSW 13 km/h 9.2 km/h 88 % 0 mm
06:59 4.1 °C 2.2 °C 1022.6 hPa South 11.1 km/h 7.2 km/h 87 % 0 mm
07:04 4.2 °C 2.2 °C 1022.6 hPa South 9.7 km/h 6.3 km/h 87 % 0 mm
07:09 4.2 °C 2.2 °C 1022.6 hPa South 8 km/h 6.6 km/h 87 % 0 mm
07:14 4.3 °C 2.3 °C 1022.6 hPa South 7.4 km/h 5.6 km/h 87 % 0 mm
07:19 4.4 °C 2.4 °C 1022.6 hPa South 14.8 km/h 11.3 km/h 87 % 0 mm
07:24 4.6 °C 2.6 °C 1022.9 hPa South 7.4 km/h 6 km/h 87 % 0 mm
07:29 4.7 °C 2.6 °C 1022.6 hPa South 5.6 km/h 7.1 km/h 86 % 0 mm
07:34 4.9 °C 2.7 °C 1022.9 hPa South 17.7 km/h 10.1 km/h 86 % 0 mm
07:37 4.9 °C 2.7 °C 1022.9 hPa South 13 km/h 6 km/h 86 % 0 mm
07:44 5 °C 2.7 °C 1022.9 hPa South 11.1 km/h 6.9 km/h 85 % 0 mm
07:49 5.2 °C 3.1 °C 1022.9 hPa South 6.4 km/h 5.1 km/h 86 % 0 mm
07:54 5.4 °C 3.1 °C 1022.9 hPa South 11.1 km/h 7.9 km/h 85 % 0 mm
07:59 5.6 °C 3.2 °C 1022.9 hPa South 9.3 km/h 5.8 km/h 85 % 0 mm
08:04 5.7 °C 3.2 °C 1022.9 hPa South 11.1 km/h 8.5 km/h 84 % 0 mm
08:09 5.8 °C 3.3 °C 1022.9 hPa South 6.4 km/h 5 km/h 84 % 0 mm
08:14 6 °C 3.5 °C 1022.9 hPa South 11.3 km/h 7.1 km/h 84 % 0 mm
08:19 6.1 °C 3.4 °C 1022.9 hPa South 9.3 km/h 3.2 km/h 83 % 0 mm
08:24 6.2 °C 3.6 °C 1022.9 hPa South 9.7 km/h 7.6 km/h 83 % 0 mm
08:29 6.4 °C 3.7 °C 1022.9 hPa South 5.6 km/h 4.3 km/h 83 % 0 mm
08:34 6.6 °C 3.9 °C 1022.9 hPa South 7.4 km/h 2.7 km/h 83 % 0 mm
08:39 6.8 °C 3.9 °C 1022.9 hPa South 5.6 km/h 1.4 km/h 82 % 0 mm
08:44 7.1 °C 4.4 °C 1022.9 hPa South 7.4 km/h 7.4 km/h 83 % 0 mm
08:49 7.3 °C 4.3 °C 1022.9 hPa South 5.6 km/h 4.2 km/h 81 % 0 mm
08:54 7.7 °C 4.8 °C 1022.9 hPa South 5.6 km/h 2.6 km/h 82 % 0 mm
08:59 8.3 °C 5.1 °C 1022.9 hPa South 5.6 km/h 1.6 km/h 80 % 0 mm
09:04 8.5 °C 5.1 °C 1022.9 hPa South 7.4 km/h 4.7 km/h 79 % 0 mm
09:09 8.5 °C 5.1 °C 1022.9 hPa South 5.6 km/h 3.7 km/h 79 % 0 mm
09:14 8.6 °C 5.2 °C 1022.9 hPa South 5.6 km/h 4 km/h 79 % 0 mm
09:19 9.4 °C 5.4 °C 1022.9 hPa South 7.4 km/h 4.3 km/h 76 % 0 mm
09:24 9.3 °C 4.9 °C 1022.9 hPa South 5.6 km/h 2.1 km/h 74 % 0 mm
09:29 9.3 °C 4.7 °C 1022.6 hPa South 5.6 km/h 1.3 km/h 73 % 0 mm
09:34 9.4 °C 5.1 °C 1022.6 hPa South 5.6 km/h 3.5 km/h 74 % 0 mm
09:39 10.1 °C 5.7 °C 1022.6 hPa South 9.3 km/h 4.3 km/h 74 % 0 mm
09:44 10.5 °C 5.3 °C 1022.6 hPa South 5.6 km/h 3.2 km/h 70 % 0 mm
09:49 10.6 °C 5.4 °C 1022.6 hPa North 4.8 km/h 3.1 km/h 70 % 0 mm
09:54 11.1 °C 5.4 °C 1022.6 hPa South 1.9 km/h 0.2 km/h 68 % 0 mm
09:59 11.6 °C 5.4 °C 1022.6 hPa South 3.7 km/h 2.3 km/h 66 % 0 mm
10:04 11.9 °C 5.1 °C 1022.2 hPa South 3.7 km/h 1.1 km/h 63 % 0 mm
10:09 12.2 °C 5.2 °C 1022.2 hPa South 6.4 km/h 3.9 km/h 62 % 0 mm
10:14 12.3 °C 5.3 °C 1022.2 hPa South 1.9 km/h 2.3 km/h 62 % 0 mm
10:19 12.9 °C 5.3 °C 1021.9 hPa South 5.6 km/h 3.9 km/h 60 % 0 mm
10:24 12.8 °C 4.3 °C 1021.9 hPa South 5.6 km/h 2.4 km/h 56 % 0 mm
10:29 12.9 °C 5.1 °C 1021.9 hPa South 6.4 km/h 4.2 km/h 59 % 0 mm
10:34 13.5 °C 4.6 °C 1021.9 hPa South 5.6 km/h 0.8 km/h 55 % 0 mm
10:39 13.7 °C 4 °C 1021.9 hPa South 12.9 km/h 7.6 km/h 52 % 0 mm
10:44 13.6 °C 3.1 °C 1021.9 hPa SE 9.7 km/h 7.2 km/h 49 % 0 mm
10:49 13.6 °C 3.4 °C 1021.9 hPa SE 5.6 km/h 1.4 km/h 50 % 0 mm
10:54 13.9 °C 2.4 °C 1021.6 hPa SE 7.4 km/h 5.3 km/h 46 % 0 mm
10:59 14.1 °C 2.3 °C 1021.6 hPa SE 8 km/h 6.3 km/h 45 % 0 mm
11:04 14.3 °C 2.2 °C 1021.2 hPa SE 9.3 km/h 7.7 km/h 44 % 0 mm
11:09 14.7 °C 2.6 °C 1021.2 hPa SE 6.4 km/h 1.3 km/h 44 % 0 mm
11:14 15.3 °C 1.8 °C 1021.2 hPa SE 8 km/h 7.9 km/h 40 % 0 mm
11:19 15.8 °C 0.4 °C 1021.2 hPa SE 13 km/h 7.9 km/h 35 % 0 mm
11:24 16 °C 0.6 °C 1020.9 hPa SE 9.3 km/h 5.6 km/h 35 % 0 mm
11:29 15.9 °C 0.5 °C 1020.9 hPa ESE 13 km/h 11.7 km/h 35 % 0 mm
11:34 15.8 °C -0.4 °C 1020.9 hPa NE 16.7 km/h 6.8 km/h 33 % 0 mm
11:39 15.8 °C -0.9 °C 1020.9 hPa NE 6.4 km/h 5.5 km/h 32 % 0 mm
11:44 15.9 °C 0.4 °C 1020.9 hPa NE 11.1 km/h 6.6 km/h 35 % 0 mm
11:49 16.1 °C 1 °C 1020.5 hPa NE 5.6 km/h 6.8 km/h 36 % 0 mm
11:54 16.3 °C -0.4 °C 1020.5 hPa NE 5.6 km/h 2.9 km/h 32 % 0 mm
11:59 16.4 °C 0.9 °C 1020.5 hPa NE 7.4 km/h 4.5 km/h 35 % 0 mm
12:04 16.7 °C 1.2 °C 1020.5 hPa NE 5.6 km/h 4.2 km/h 35 % 0 mm
12:09 17.1 °C 0.2 °C 1020.5 hPa NE 9.3 km/h 6.8 km/h 32 % 0 mm
12:14 16.9 °C 0.9 °C 1020.2 hPa NE 5.6 km/h 3.7 km/h 34 % 0 mm
12:19 16.8 °C 1.2 °C 1020.2 hPa NE 3.7 km/h 1 km/h 35 % 0 mm
12:24 16.8 °C -0.4 °C 1020.2 hPa NE 7.4 km/h 4.8 km/h 31 % 0 mm
12:29 17 °C 0.2 °C 1019.9 hPa NE 8 km/h 5.5 km/h 32 % 0 mm
12:34 16.9 °C 0.6 °C 1019.9 hPa NE 5.6 km/h 1 km/h 33 % 0 mm
12:39 17.2 °C 0.4 °C 1019.9 hPa NE 8 km/h 6.4 km/h 32 % 0 mm
12:44 17.5 °C 0.2 °C 1019.9 hPa NE 5.6 km/h 4.7 km/h 31 % 0 mm
12:49 17.8 °C 0.4 °C 1019.5 hPa NE 9.3 km/h 8.2 km/h 31 % 0 mm
12:54 17.7 °C -0.6 °C 1019.5 hPa NE 7.4 km/h 3.2 km/h 29 % 0 mm
12:59 17.7 °C 0.8 °C 1019.5 hPa NE 8 km/h 4.5 km/h 32 % 0 mm
13:04 18.2 °C 1.2 °C 1019.5 hPa NE 11.3 km/h 7.4 km/h 32 % 0 mm
13:09 18.2 °C -1.1 °C 1019.5 hPa NE 9.3 km/h 6.4 km/h 27 % 0 mm
13:14 17.9 °C 1.4 °C 1019.2 hPa NE 8 km/h 7.6 km/h 33 % 0 mm
13:19 17.7 °C -0.2 °C 1019.2 hPa NE 5.6 km/h 1 km/h 30 % 0 mm
13:24 17.8 °C 0.8 °C 1019.2 hPa NE 5.6 km/h 3.9 km/h 32 % 0 mm
13:29 17.9 °C 1 °C 1018.8 hPa NE 8 km/h 7.9 km/h 32 % 0 mm
13:34 18 °C 1.4 °C 1018.8 hPa NE 11.1 km/h 5.8 km/h 33 % 0 mm
13:39 18 °C 1.1 °C 1018.8 hPa NE 4.8 km/h 4.5 km/h 32 % 0 mm
13:44 17.9 °C 1.8 °C 1018.8 hPa NE 5.6 km/h 0.5 km/h 34 % 0 mm
13:49 18.1 °C 1.1 °C 1018.8 hPa NE 9.3 km/h 6.9 km/h 32 % 0 mm
13:54 18 °C 1.4 °C 1018.5 hPa NE 5.6 km/h 2.4 km/h 33 % 0 mm
13:59 18.1 °C 3.2 °C 1018.5 hPa NNE 11.1 km/h 8.9 km/h 37 % 0 mm
14:04 18.1 °C 1.2 °C 1018.5 hPa NNE 13 km/h 8.7 km/h 32 % 0 mm
14:09 17.9 °C 0.1 °C 1018.5 hPa NNE 5.6 km/h 1.8 km/h 30 % 0 mm
14:14 18.2 °C 0.3 °C 1018.5 hPa NNE 9.3 km/h 4 km/h 30 % 0 mm
14:19 18.4 °C 0.5 °C 1018.2 hPa NNE 16.1 km/h 9.5 km/h 30 % 0 mm
14:24 18.3 °C -0.6 °C 1018.2 hPa NNE 11.3 km/h 6.8 km/h 28 % 0 mm
14:29 18.2 °C -0.7 °C 1018.2 hPa North 11.1 km/h 7.9 km/h 28 % 0 mm
14:34 18.1 °C 0.2 °C 1018.2 hPa North 5.6 km/h 0.8 km/h 30 % 0 mm
14:39 18.7 °C 0.3 °C 1018.2 hPa North 9.7 km/h 6.9 km/h 29 % 0 mm
14:44 18.8 °C -1.1 °C 1018.2 hPa North 7.4 km/h 5.5 km/h 26 % 0 mm
14:49 18.6 °C -1.8 °C 1018.2 hPa North 11.3 km/h 4.8 km/h 25 % 0 mm
14:54 18.7 °C -0.7 °C 1018.2 hPa North 8 km/h 8.4 km/h 27 % 0 mm
14:59 18.8 °C -2.2 °C 1017.8 hPa North 9.7 km/h 5 km/h 24 % 0 mm
15:04 18.7 °C -3.5 °C 1017.8 hPa North 7.4 km/h 5.5 km/h 22 % 0 mm
15:09 18.3 °C -3.8 °C 1017.8 hPa North 11.1 km/h 9.5 km/h 22 % 0 mm
15:14 18.3 °C -4.4 °C 1017.8 hPa North 11.3 km/h 8.5 km/h 21 % 0 mm
15:19 18.2 °C -3.9 °C 1017.8 hPa North 9.3 km/h 6.4 km/h 22 % 0 mm
15:24 18.4 °C -3.7 °C 1017.8 hPa North 1.9 km/h   22 % 0 mm
15:29 18.9 °C -2.2 °C 1017.8 hPa North 9.3 km/h 7.1 km/h 24 % 0 mm
15:34 18.9 °C -1.6 °C 1017.8 hPa North 3.7 km/h 1.4 km/h 25 % 0 mm
15:39 19.1 °C -0.9 °C 1017.8 hPa North 7.4 km/h 3.5 km/h 26 % 0 mm
15:44 18.9 °C -1 °C 1017.8 hPa North 18.5 km/h 8.9 km/h 26 % 0 mm
15:49 18.7 °C -1.2 °C 1017.8 hPa North 5.6 km/h 4.8 km/h 26 % 0 mm
15:54 18.7 °C -1.2 °C 1017.5 hPa North 6.4 km/h 4.2 km/h 26 % 0 mm
15:59 18.6 °C -2.9 °C 1017.5 hPa North 14.8 km/h 6.9 km/h 23 % 0 mm
16:04 18.5 °C -3.1 °C 1017.5 hPa North 13 km/h 7.1 km/h 23 % 0 mm
16:09 18.4 °C -4.3 °C 1017.5 hPa North 13 km/h 6.6 km/h 21 % 0 mm
16:14 18.4 °C -3.7 °C 1017.5 hPa North 12.9 km/h 9.5 km/h 22 % 0 mm
16:19 18.2 °C -3.9 °C 1017.5 hPa North 9.3 km/h 5.8 km/h 22 % 0 mm
16:24 18.2 °C -3.3 °C 1017.5 hPa North 9.3 km/h 6.6 km/h 23 % 0 mm
16:29 18.1 °C -2.3 °C 1017.5 hPa North 7.4 km/h 4.5 km/h 25 % 0 mm
16:34 18 °C -2.9 °C 1017.5 hPa North 6.4 km/h 3.7 km/h 24 % 0 mm
16:39 17.8 °C -4.2 °C 1017.5 hPa North 11.1 km/h 6.1 km/h 22 % 0 mm
16:44 17.6 °C -4.4 °C 1017.5 hPa North 5.6 km/h 4.3 km/h 22 % 0 mm
16:49 17.7 °C -3.7 °C 1017.5 hPa North 5.6 km/h 3.5 km/h 23 % 0 mm
16:54 17.8 °C -4.2 °C 1017.5 hPa North 11.1 km/h 10.1 km/h 22 % 0 mm
16:59 17.7 °C -4.3 °C 1017.5 hPa North 8 km/h 3.7 km/h 22 % 0 mm
17:04 17.7 °C -4.3 °C 1017.5 hPa North 7.4 km/h 3.1 km/h 22 % 0 mm
17:09 17.8 °C -3.7 °C 1017.5 hPa North 5.6 km/h 2.1 km/h 23 % 0 mm
17:14 17.8 °C -3.7 °C 1017.2 hPa North 9.7 km/h 5.5 km/h 23 % 0 mm
17:19 17.6 °C -4.4 °C 1017.2 hPa North 11.1 km/h 2.4 km/h 22 % 0 mm
17:24 17.8 °C -3.7 °C 1017.2 hPa North 7.4 km/h 5.1 km/h 23 % 0 mm
17:29 18.1 °C -4 °C 1017.2 hPa North 5.6 km/h 4.2 km/h 22 % 0 mm
17:34 18.1 °C -4 °C 1017.2 hPa North 6.4 km/h 6.9 km/h 22 % 0 mm
17:39 17.7 °C -4.3 °C 1017.5 hPa North 7.4 km/h 3.9 km/h 22 % 0 mm
17:44 17.5 °C -3.9 °C 1017.5 hPa North 6.4 km/h 6 km/h 23 % 0 mm
17:49 17.2 °C -4.1 °C 1017.5 hPa North 5.6 km/h 2.1 km/h 23 % 0 mm
17:54 17.2 °C -3.1 °C 1017.5 hPa North 5.6 km/h 4.8 km/h 25 % 0 mm
17:59 17.1 °C -2.6 °C 1017.2 hPa North 5.6 km/h 1.4 km/h 26 % 0 mm
18:04 17 °C -2.2 °C 1017.2 hPa North 5.6 km/h 2.4 km/h 27 % 0 mm
18:09 16.7 °C -2.4 °C 1017.2 hPa North 3.7 km/h 2.1 km/h 27 % 0 mm
18:14 16.4 °C -2.2 °C 1017.2 hPa North 3.7 km/h 1.4 km/h 28 % 0 mm
18:19 16.2 °C -1.9 °C 1017.2 hPa Calm     29 % 0 mm
18:24 15.9 °C -1.7 °C 1017.2 hPa Calm     30 % 0 mm
18:29 15.5 °C -1.2 °C 1017.2 hPa Calm     32 % 0 mm
18:34 14.8 °C -1.3 °C 1017.2 hPa Calm     33 % 0 mm
18:39 14.2 °C -1.4 °C 1017.2 hPa Calm     34 % 0 mm
18:44 13.7 °C -1.6 °C 1017.2 hPa North 1.9 km/h 0.2 km/h 35 % 0 mm
18:49 13.3 °C -0.8 °C 1017.2 hPa Calm     38 % 0 mm
18:54 12.9 °C -0.7 °C 1017.2 hPa Calm     39 % 0 mm
18:59 12.8 °C -0.5 °C 1017.2 hPa Calm     40 % 0 mm
19:04 12.7 °C -0.6 °C 1017.2 hPa Calm     40 % 0 mm
19:09 12.5 °C -0.4 °C 1017.2 hPa Calm     41 % 0 mm
19:14 12.2 °C 0 °C 1017.2 hPa Calm     43 % 0 mm
19:19 11.7 °C -0.2 °C 1017.5 hPa North 3.7 km/h 1.9 km/h 44 % 0 mm
19:24 11.5 °C 1.2 °C 1017.5 hPa North 1.9 km/h   49 % 0 mm
19:29 11.3 °C 1.3 °C 1017.5 hPa Calm     50 % 0 mm
19:34 11.2 °C 1.2 °C 1017.5 hPa Calm     50 % 0 mm
19:39 11.1 °C 0.8 °C 1017.5 hPa Calm     49 % 0 mm
19:44 10.9 °C 1.2 °C 1017.5 hPa North 3.7 km/h   51 % 0 mm
19:49 10.7 °C 0.7 °C 1017.8 hPa North 3.7 km/h 1.3 km/h 50 % 0 mm
19:54 10.8 °C 0.5 °C 1017.8 hPa North 1.9 km/h 1.1 km/h 49 % 0 mm
19:59 10.8 °C 0.6 °C 1017.8 hPa Calm     49 % 0 mm
20:04 10.8 °C 0.5 °C 1017.8 hPa North 1.6 km/h 0.8 km/h 49 % 0 mm
20:09 10.7 °C 0.7 °C 1017.5 hPa North 1.9 km/h   50 % 0 mm
20:14 10.6 °C 1.2 °C 1017.5 hPa Calm     52 % 0 mm
20:19 10.3 °C 1.1 °C 1017.5 hPa Calm     53 % 0 mm
20:24 10.3 °C 1.4 °C 1017.5 hPa North 1.9 km/h   54 % 0 mm
20:29 10.2 °C 1.5 °C 1017.5 hPa Calm     55 % 0 mm
20:34 10.2 °C 1.5 °C 1017.5 hPa Calm     55 % 0 mm
20:39 10.1 °C 1.4 °C 1017.5 hPa Calm     55 % 0 mm
20:44 9.7 °C 1.3 °C 1017.2 hPa North 3.7 km/h 1.4 km/h 56 % 0 mm
20:49 9.4 °C 1.3 °C 1017.5 hPa Calm     57 % 0 mm
20:54 9 °C 1.4 °C 1017.5 hPa North 3.7 km/h 1.8 km/h 59 % 0 mm
20:59 8.6 °C 1.3 °C 1017.5 hPa North 5.6 km/h 4 km/h 60 % 0 mm
21:04 8.6 °C 1.4 °C 1017.5 hPa North 3.7 km/h 1.4 km/h 61 % 0 mm
21:09 8.5 °C 1.2 °C 1017.5 hPa Calm     60 % 0 mm
21:14 8.4 °C 1.1 °C 1017.5 hPa Calm     60 % 0 mm
21:19 8.3 °C 1.2 °C 1017.5 hPa Calm     61 % 0 mm
21:24 8.2 °C 1.3 °C 1017.5 hPa Calm     62 % 0 mm
21:29 8 °C 1.2 °C 1017.5 hPa Calm     62 % 0 mm
21:34 7.8 °C 1.2 °C 1017.5 hPa Calm     63 % 0 mm
21:39 7.5 °C 1.1 °C 1017.5 hPa Calm     64 % 0 mm
21:44 7.4 °C 1.4 °C 1017.5 hPa Calm     66 % 0 mm
21:49 7.4 °C 1.2 °C 1017.5 hPa Calm     65 % 0 mm
21:54 7.3 °C 1.2 °C 1017.5 hPa Calm     65 % 0 mm
21:59 7.3 °C 0.9 °C 1017.5 hPa North 5.6 km/h 1.9 km/h 64 % 0 mm
22:04 7.4 °C 0.6 °C 1017.5 hPa North 3.7 km/h 2.6 km/h 62 % 0 mm
22:09 7.9 °C 0.7 °C 1017.5 hPa North 5.6 km/h 2.7 km/h 60 % 0 mm
22:14 8.2 °C 0.4 °C 1017.5 hPa North 3.2 km/h 0.8 km/h 58 % 0 mm
22:19 8.2 °C 0.4 °C 1017.5 hPa North 3.7 km/h 1.9 km/h 58 % 0 mm
22:24 8.4 °C 0.4 °C 1017.5 hPa North 1.9 km/h 0.3 km/h 57 % 0 mm
22:29 8.6 °C 0.6 °C 1017.2 hPa Calm     57 % 0 mm
22:34 8.4 °C 0.8 °C 1017.2 hPa North 1.9 km/h 0.8 km/h 59 % 0 mm
22:39 8.2 °C 0.7 °C 1017.2 hPa Calm   0.5 km/h 59 % 0 mm
22:44 8.2 °C 1.1 °C 1017.2 hPa North 5.6 km/h 2.9 km/h 61 % 0 mm
22:49 8.4 °C 1.1 °C 1017.2 hPa North 7.4 km/h 4.8 km/h 60 % 0 mm
22:54 8.6 °C 0.8 °C 1017.2 hPa North 5.6 km/h 3.7 km/h 58 % 0 mm
22:59 9.2 °C 0.6 °C 1017.2 hPa North 5.6 km/h 2.6 km/h 55 % 0 mm
23:04 9.6 °C 0.7 °C 1016.8 hPa North 7.4 km/h 2.9 km/h 54 % 0 mm
23:09 9.8 °C 0.4 °C 1016.5 hPa North 6.4 km/h 4.2 km/h 52 % 0 mm
23:14 10 °C 0.6 °C 1016.5 hPa Calm     52 % 0 mm
23:19 10 °C 0.6 °C 1016.5 hPa Calm     52 % 0 mm
23:24 10 °C 0.6 °C 1016.5 hPa North 1.6 km/h   52 % 0 mm
23:29 9.9 °C 0.6 °C 1016.5 hPa North 3.7 km/h 3.5 km/h 52 % 0 mm
23:34 10 °C 0.6 °C 1016.5 hPa North 5.6 km/h 2.6 km/h 52 % 0 mm
23:39 10.1 °C 0.4 °C 1016.5 hPa North 4.8 km/h 2.7 km/h 51 % 0 mm
23:44 10 °C 0.1 °C 1016.5 hPa North 5.6 km/h 4.5 km/h 50 % 0 mm
23:49 10 °C 0.1 °C 1016.8 hPa North 5.6 km/h 3.5 km/h 50 % 0 mm
23:54 9.9 °C -0.1 °C 1016.5 hPa North 3.7 km/h 1.4 km/h 50 % 0 mm
23:59 9.9 °C -0.1 °C 1016.8 hPa North 3.7 km/h 1.3 km/h 50 % 0 mm
Ararat Weather
Compliments of Weather Underground - 2.25 mb
Click here to send mail.


ABOUT

Live weather data from Ararat, Victoria, Australia, 3377
Data uploaded from Cumulus every 5 minutes to Weather Underground.
This site then downloads the raw data for formatting and display.
Metric and imperial data can be displayed. Graphs and historical data available.
Includes Sun and Moon times and rain image live from BOM.

Check out Ararat Weather on Facebook, Twitter and Google +

Help support ongoing costs by checking out the ads





Follow @AraratWeather